Airfield :
LOGIN :

Register | Disclaimer

   EN    FR    IT 

 










Legend :    VFR   Marginal VFR   IFR   Intensive IFR   Very Intensive IFR
Visi :
Ceiling :
>= 8 km
>= 3000ft
5 to 8 km
1000 to 3000 ft
1500m to 5 km
500 to 1000 ft
800 to 1500m
200 to 500 ft
< 800m
< 200 ft
Symbols :   Thunderstorms  Fog  Heavy snow  Heavy precipitations  Wind > 20 kt
SIGMETs :     Misc.  Thunderstorms  Icing  Turbulence  Mountain Waves  Volcanic Ashes






- Airport Elevation : 44 ft
- IATA code : SOU


EGHI - Southampton

CURRENT METAR :
  • 201450Z VRB02KT CAVOK 21/08 Q1012

EXPIRED METARs :
  • 201420Z 36004KT 310V090 CAVOK 21/07 Q1012
  • 201350Z 04006KT 360V090 CAVOK 20/08 Q1012
  • 201320Z 05006KT 330V100 9999 FEW040 20/07 Q1013
  • 201250Z 05005KT 340V110 9999 FEW040 20/08 Q1013
  • 201220Z 02007KT 340V060 9999 FEW040 20/10 Q1013
  • 201150Z 02007KT 9999 FEW040 19/09 Q1013
  • 201120Z 04006KT 340V100 CAVOK 19/09 Q1014
  • 201050Z 03007KT 360V060 CAVOK 18/10 Q1014
  • 201020Z 02007KT 350V050 CAVOK 17/09 Q1014

TAF TAF EGHI
Valid from the 20 at 15:00 until the 20 at 22:00 UTC


201401Z 2015/2022 05007KT 9999 FEW040
PROB30
TEMPO 2016/2020 4000 +SHRA
ATIS : +44 23 8062 7103



MET'MAP, your aeronautical weather chart ! - Copyright ORBIFLY December 2007 - Disclaimer

ORBIFLY MET'MAP TEAM :

Programming & Development : Alexandra Zaïnal
Original concept : Baudouin d'Aumeries
Technical & hardware support : Manuel Goepfert
Assistance : Marc-Olivier Méhu




SOURCES & CREDITS :

   NOAA